Time;durP1;ratioP1;P1;durP2;ratioP2;P2;SDS_P1;SDS_P2;PMS_P1;PMS_P2;Temp;Humidity;BMP_temperature;BMP_pressure;BME280_temperature;BME280_humidity;BME280_pressure;Samples;Min_cycle;Max_cycle;Signal;HPM_P1;HPM_P2
2022/04/24 00:00:24;;;;;;;6.07;2.70;;;;;;;11.58;93.96;96495.53;4985332;28;20061;-56
2022/04/24 00:02:51;;;;;;;6.68;3.40;;;;;;;11.40;95.20;96501.00;4984022;28;20093;-56
2022/04/24 00:05:18;;;;;;;3.50;2.60;;;;;;;11.23;95.58;96503.66;4985297;28;20062;-56
2022/04/24 00:07:45;;;;;;;2.97;2.63;;;;;;;11.25;95.89;96510.44;4985477;28;20770;-56
2022/04/24 00:10:12;;;;;;;3.40;2.38;;;;;;;11.33;95.31;96502.94;4984030;28;20425;-57
2022/04/24 00:12:38;;;;;;;9.30;3.17;;;;;;;11.37;94.86;96507.31;4985401;28;20532;-56
2022/04/24 00:15:05;;;;;;;14.32;3.45;;;;;;;11.29;94.68;96493.78;4985134;28;20050;-55
2022/04/24 00:17:32;;;;;;;4.97;2.83;;;;;;;11.35;94.84;96508.91;4985123;28;20472;-63
2022/04/24 00:19:59;;;;;;;7.57;3.65;;;;;;;10.99;94.30;96468.28;4985299;28;20047;-63
2022/04/24 00:22:25;;;;;;;6.93;3.83;;;;;;;11.14;94.54;96497.69;4985227;28;20528;-57
2022/04/24 00:24:52;;;;;;;7.15;3.45;;;;;;;11.17;94.84;96494.13;4984193;28;20084;-56
2022/04/24 00:27:19;;;;;;;3.72;2.70;;;;;;;11.16;95.92;96520.28;4985335;28;20046;-63
2022/04/24 00:29:45;;;;;;;3.95;2.63;;;;;;;11.05;97.33;96513.88;4985470;28;20050;-55
2022/04/24 00:32:12;;;;;;;6.22;2.80;;;;;;;10.76;99.79;96487.94;4984947;28;20069;-63
2022/04/24 00:34:38;;;;;;;4.88;2.42;;;;;;;10.45;99.85;96433.91;4985186;28;20489;-56
2022/04/24 00:37:06;;;;;;;5.95;2.33;;;;;;;11.08;98.33;96521.41;4983125;28;20089;-56
2022/04/24 00:39:32;;;;;;;5.43;2.92;;;;;;;10.87;96.46;96468.59;4985426;28;20060;-58
2022/04/24 00:41:59;;;;;;;6.63;2.50;;;;;;;11.19;96.10;96511.97;4985034;28;20054;-56
2022/04/24 00:44:27;;;;;;;4.72;3.20;;;;;;;10.69;96.12;96449.09;4983180;28;20061;-56
2022/04/24 00:47:02;;;;;;;6.97;3.80;;;;;;;11.11;95.60;96515.09;4964075;28;20057;-64
2022/04/24 00:49:29;;;;;;;5.63;3.88;;;;;;;10.15;95.54;96402.81;4965132;28;20047;-55
2022/04/24 00:51:56;;;;;;;4.32;3.03;;;;;;;11.09;95.39;96517.44;4965718;28;20059;-56
2022/04/24 00:54:23;;;;;;;5.32;2.90;;;;;;;10.75;94.80;96457.84;4965050;28;20055;-55
2022/04/24 00:56:50;;;;;;;9.57;4.15;;;;;;;10.64;95.97;96463.31;4965255;28;20062;-55
2022/04/24 00:59:17;;;;;;;8.15;4.28;;;;;;;10.88;97.11;96508.97;4965102;28;20076;-56
2022/04/24 01:01:44;;;;;;;6.82;3.38;;;;;;;10.83;97.82;96521.22;4964943;28;20066;-55
2022/04/24 01:04:12;;;;;;;4.43;3.03;;;;;;;10.47;96.88;96475.84;4965041;28;20055;-63
2022/04/24 01:06:41;;;;;;;5.78;3.13;;;;;;;10.77;96.38;96521.97;4965135;28;20059;-63
2022/04/24 01:09:17;;;;;;;5.03;3.03;;;;;;;9.96;96.38;96386.41;4965009;28;20055;-62
2022/04/24 01:11:52;;;;;;;7.35;2.97;;;;;;;10.40;97.67;96486.84;4962948;28;20577;-55
2022/04/24 01:14:21;;;;;;;6.82;3.42;;;;;;;10.66;98.23;96516.34;4964644;28;20518;-56
2022/04/24 01:16:48;;;;;;;7.72;2.63;;;;;;;10.58;99.34;96526.56;4964838;28;20055;-62
2022/04/24 01:19:16;;;;;;;5.28;2.25;;;;;;;9.46;100.00;96373.31;4965088;28;20066;-57
2022/04/24 01:21:45;;;;;;;4.95;2.60;;;;;;;10.27;100.00;96493.88;4965242;28;20062;-58
2022/04/24 01:24:13;;;;;;;5.03;2.72;;;;;;;10.33;100.00;96517.25;4965010;28;20062;-55
2022/04/24 01:26:40;;;;;;;3.97;2.85;;;;;;;10.43;100.00;96524.84;4964881;28;20051;-56
2022/04/24 01:29:07;;;;;;;5.97;2.38;;;;;;;9.94;100.00;96457.91;4964901;28;20058;-62
2022/04/24 01:31:34;;;;;;;2.67;2.38;;;;;;;10.51;100.00;96523.72;4964420;28;20061;-55
2022/04/24 01:34:01;;;;;;;6.25;3.15;;;;;;;10.45;100.00;96525.25;4963327;28;20051;-55
2022/04/24 01:36:27;;;;;;;6.43;3.13;;;;;;;10.42;100.00;96523.25;4963799;28;20055;-62
2022/04/24 01:38:54;;;;;;;7.05;3.03;;;;;;;10.46;100.00;96524.06;4964971;28;20051;-62
2022/04/24 01:41:21;;;;;;;6.85;3.92;;;;;;;10.46;100.00;96524.06;4964267;28;20055;-62
2022/04/24 01:43:48;;;;;;;5.40;3.65;;;;;;;10.45;99.55;96522.50;4964615;28;20058;-55
2022/04/24 01:46:15;;;;;;;4.57;2.78;;;;;;;10.52;99.22;96527.31;4980462;28;20062;-55
2022/04/24 01:48:42;;;;;;;5.40;2.80;;;;;;;10.44;98.42;96520.91;4984176;28;20050;-61
2022/04/24 01:51:09;;;;;;;5.35;3.30;;;;;;;10.43;97.53;96547.00;4987489;28;20061;-62
2022/04/24 01:53:36;;;;;;;5.93;3.20;;;;;;;10.10;97.11;96500.00;4988136;28;20484;-55
2022/04/24 01:56:05;;;;;;;5.90;4.15;;;;;;;10.19;97.91;96519.09;4987725;28;20066;-55
2022/04/24 01:58:32;;;;;;;6.85;4.22;;;;;;;10.26;98.75;96531.00;4986269;28;20058;-62
2022/04/24 02:01:00;;;;;;;7.20;3.05;;;;;;;9.91;98.48;96507.69;4987485;28;20081;-55
2022/04/24 02:03:28;;;;;;;3.65;3.05;;;;;;;10.26;98.58;96525.47;4987588;28;20452;-63
2022/04/24 02:05:56;;;;;;;5.05;3.20;;;;;;;9.68;99.74;96447.00;4987741;28;20050;-56
2022/04/24 02:08:24;;;;;;;4.45;2.97;;;;;;;10.11;100.00;96534.03;4987410;28;20535;-56
2022/04/24 02:10:51;;;;;;;4.95;3.47;;;;;;;9.47;100.00;96432.94;4987340;28;20485;-56
2022/04/24 02:13:18;;;;;;;11.45;4.55;;;;;;;9.96;100.00;96527.50;4987055;28;20411;-56
2022/04/24 02:15:45;;;;;;;11.10;5.15;;;;;;;9.99;100.00;96529.50;4986901;28;20053;-55
2022/04/24 02:18:12;;;;;;;9.80;5.70;;;;;;;9.94;100.00;96546.44;4986056;28;20061;-63
2022/04/24 02:20:39;;;;;;;18.98;6.65;;;;;;;9.87;100.00;96518.72;4987118;28;20520;-63
2022/04/24 02:23:05;;;;;;;17.85;7.43;;;;;;;9.92;100.00;96532.22;4985447;28;20496;-62
2022/04/24 02:25:32;;;;;;;14.13;6.32;;;;;;;9.80;100.00;96492.97;4987130;28;20050;-63
2022/04/24 02:27:59;;;;;;;11.50;5.57;;;;;;;9.92;100.00;96537.75;4986759;28;20054;-57
2022/04/24 02:30:29;;;;;;;10.70;5.05;;;;;;;10.02;100.00;96531.53;4986898;28;20449;-56
2022/04/24 02:32:57;;;;;;;11.75;5.88;;;;;;;10.05;100.00;96529.97;4987072;28;20453;-55
2022/04/24 02:35:24;;;;;;;11.60;6.78;;;;;;;10.02;100.00;96525.97;4985527;28;20058;-56
2022/04/24 02:37:51;;;;;;;10.18;5.30;;;;;;;9.97;100.00;96534.66;4987132;28;20051;-56
2022/04/24 02:40:24;;;;;;;7.80;4.70;;;;;;;10.01;100.00;96535.47;4985447;28;20069;-63
2022/04/24 02:42:51;;;;;;;8.05;4.20;;;;;;;10.09;100.00;96548.25;4985665;28;20069;-62
2022/04/24 02:45:19;;;;;;;5.03;3.42;;;;;;;10.11;100.00;96548.66;4978522;28;20430;-63
2022/04/24 02:47:47;;;;;;;10.80;4.32;;;;;;;10.06;100.00;96554.50;4967405;28;20058;-58
2022/04/24 02:50:14;;;;;;;7.18;3.05;;;;;;;9.66;100.00;96534.28;4967124;28;20074;-57
2022/04/24 02:52:49;;;;;;;5.38;2.88;;;;;;;9.47;100.00;96521.38;4966980;28;20054;-56
2022/04/24 02:55:17;;;;;;;4.93;3.03;;;;;;;9.77;100.00;96563.63;4967008;28;20055;-63
2022/04/24 02:57:44;;;;;;;7.53;3.20;;;;;;;9.17;100.00;96465.31;4967385;28;20101;-56
2022/04/24 03:00:12;;;;;;;4.28;3.45;;;;;;;9.88;100.00;96572.84;4966709;28;20296;-61
2022/04/24 03:02:41;;;;;;;5.60;3.15;;;;;;;9.84;100.00;96565.69;4965598;28;20066;-58
2022/04/24 03:05:12;;;;;;;8.77;3.45;;;;;;;9.92;100.00;96565.41;4966554;28;20058;-63
2022/04/24 03:07:39;;;;;;;6.72;3.42;;;;;;;9.90;100.00;96565.00;4967178;28;20063;-62
2022/04/24 03:10:08;;;;;;;6.32;3.60;;;;;;;9.90;100.00;96567.75;4966701;28;20058;-62
2022/04/24 03:12:36;;;;;;;6.18;3.63;;;;;;;9.84;100.00;96580.34;4967307;28;20445;-56
2022/04/24 03:15:04;;;;;;;8.18;3.72;;;;;;;9.77;100.00;96574.69;4966740;28;20057;-55
2022/04/24 03:17:34;;;;;;;8.48;4.38;;;;;;;9.83;100.00;96581.47;4966734;28;20173;-56
2022/04/24 03:20:05;;;;;;;6.50;4.40;;;;;;;9.60;100.00;96558.69;4966453;28;20058;-55
2022/04/24 03:22:33;;;;;;;9.35;4.85;;;;;;;9.76;100.00;96595.25;4966649;28;20059;-62
2022/04/24 03:25:02;;;;;;;7.75;4.50;;;;;;;9.70;100.00;96585.69;4966278;28;20065;-55
2022/04/24 03:27:28;;;;;;;11.07;4.80;;;;;;;9.52;100.00;96553.44;4966464;28;20050;-62
2022/04/24 03:29:55;;;;;;;8.23;4.88;;;;;;;9.82;100.00;96585.44;4964991;28;20498;-57
2022/04/24 03:32:22;;;;;;;11.43;4.68;;;;;;;9.04;100.00;96557.91;4966560;28;20059;-62
2022/04/24 03:34:50;;;;;;;8.00;4.38;;;;;;;9.29;100.00;96536.97;4966779;28;20612;-63
2022/04/24 03:37:18;;;;;;;9.20;4.05;;;;;;;9.67;100.00;96608.56;4964968;28;20431;-63
2022/04/24 03:39:46;;;;;;;10.80;4.43;;;;;;;9.20;100.00;96528.13;4966464;28;20059;-63
2022/04/24 03:42:12;;;;;;;9.85;4.35;;;;;;;9.60;100.00;96594.63;4965804;28;20062;-63
2022/04/24 03:44:39;;;;;;;11.38;4.72;;;;;;;9.59;100.00;96601.34;4968496;28;20055;-62
2022/04/24 03:47:07;;;;;;;9.30;4.53;;;;;;;9.57;100.00;96600.09;4985588;28;20112;-63
2022/04/24 03:49:34;;;;;;;8.93;3.95;;;;;;;9.80;100.00;96607.13;4985595;28;20055;-63
2022/04/24 03:52:01;;;;;;;6.80;4.28;;;;;;;9.58;100.00;96572.09;4985840;28;20080;-63
2022/04/24 03:54:28;;;;;;;6.57;4.03;;;;;;;9.91;100.00;96618.34;4986055;28;20061;-63
2022/04/24 03:56:54;;;;;;;10.85;4.88;;;;;;;9.70;100.00;96563.56;4985349;28;20049;-63
2022/04/24 03:59:21;;;;;;;11.43;5.80;;;;;;;10.22;100.00;96618.75;4985264;28;20524;-56
2022/04/24 04:01:48;;;;;;;15.40;6.68;;;;;;;10.33;100.00;96614.16;4985665;28;20050;-56
2022/04/24 04:04:15;;;;;;;13.60;6.03;;;;;;;10.31;100.00;96610.94;4985294;28;20050;-54
2022/04/24 04:06:42;;;;;;;15.95;14.13;;;;;;;10.39;100.00;96623.69;4985138;28;20058;-61
2022/04/24 04:09:10;;;;;;;11.23;6.50;;;;;;;10.51;99.58;96625.41;4983744;28;20054;-63
2022/04/24 04:11:37;;;;;;;12.98;7.47;;;;;;;10.47;97.83;96605.97;4983287;28;20141;-63
2022/04/24 04:14:04;;;;;;;15.73;9.32;;;;;;;10.72;96.96;96631.16;4984198;28;20058;-63
2022/04/24 04:16:30;;;;;;;20.00;11.88;;;;;;;10.43;96.24;96584.97;4985226;28;20050;-62
2022/04/24 04:18:57;;;;;;;17.77;10.82;;;;;;;10.43;94.96;96585.75;4985122;28;20097;-56
2022/04/24 04:21:24;;;;;;;18.63;15.40;;;;;;;10.82;95.01;96643.50;4985295;28;20058;-55
2022/04/24 04:23:51;;;;;;;23.92;14.45;;;;;;;10.95;94.83;96644.81;4983735;28;20069;-55
2022/04/24 04:26:18;;;;;;;21.63;11.82;;;;;;;11.01;94.81;96648.81;4985504;28;20057;-56
2022/04/24 04:28:45;;;;;;;22.85;16.45;;;;;;;10.98;95.15;96632.97;4984939;28;20534;-56
2022/04/24 04:31:13;;;;;;;12.32;6.53;;;;;;;11.21;93.99;96642.66;4985250;28;20474;-56
2022/04/24 04:33:41;;;;;;;11.00;5.72;;;;;;;11.36;93.90;96649.94;4982998;28;20568;-62
2022/04/24 04:36:08;;;;;;;9.40;5.47;;;;;;;11.15;93.73;96601.81;4984982;28;20508;-62
2022/04/24 04:38:35;;;;;;;11.25;5.70;;;;;;;11.55;93.55;96651.63;4983518;28;20058;-62
2022/04/24 04:41:03;;;;;;;11.85;5.88;;;;;;;11.74;92.86;96666.09;4982991;28;20572;-63
2022/04/24 04:43:30;;;;;;;16.15;6.20;;;;;;;11.87;92.11;96655.44;4985151;28;20422;-66
2022/04/24 04:45:57;;;;;;;9.95;5.82;;;;;;;12.03;92.16;96655.91;4971864;28;20101;-63
2022/04/24 04:48:24;;;;;;;11.45;6.43;;;;;;;11.78;92.06;96616.13;4965201;28;20086;-56
2022/04/24 04:50:51;;;;;;;9.63;5.32;;;;;;;12.25;91.16;96652.03;4965147;28;20055;-57
2022/04/24 04:53:18;;;;;;;7.85;4.72;;;;;;;11.96;89.37;96578.16;4965466;28;20054;-63
2022/04/24 04:55:45;;;;;;;9.00;5.20;;;;;;;12.60;89.07;96652.16;4965690;28;20054;-62
2022/04/24 04:58:11;;;;;;;9.43;5.85;;;;;;;12.77;87.98;96651.41;4965969;28;20161;-56
2022/04/24 05:00:38;;;;;;;9.68;5.82;;;;;;;12.96;86.77;96647.50;4963961;28;20482;-56
2022/04/24 05:03:05;;;;;;;12.40;6.82;;;;;;;13.15;85.54;96656.25;4964732;28;20257;-63
2022/04/24 05:05:32;;;;;;;14.75;10.30;;;;;;;12.99;84.38;96596.66;4963841;28;20055;-63
2022/04/24 05:07:58;;;;;;;15.85;9.18;;;;;;;13.52;82.41;96653.91;4964764;28;20066;-56
2022/04/24 05:10:25;;;;;;;10.13;6.90;;;;;;;13.39;81.33;96610.97;4965251;28;20261;-61
2022/04/24 05:12:52;;;;;;;10.88;8.55;;;;;;;13.82;80.83;96652.66;4965177;28;20106;-56
2022/04/24 05:15:21;;;;;;;11.23;7.20;;;;;;;13.92;79.28;96654.63;4965097;28;20051;-63
2022/04/24 05:17:48;;;;;;;18.23;15.68;;;;;;;14.05;78.32;96653.00;4964927;28;20067;-63
2022/04/24 05:20:14;;;;;;;12.85;8.20;;;;;;;13.95;78.22;96603.69;4963337;28;20062;-56
2022/04/24 05:22:41;;;;;;;16.15;7.60;;;;;;;14.30;78.74;96642.59;4965246;28;20066;-58
2022/04/24 05:25:09;;;;;;;18.25;8.93;;;;;;;14.21;78.16;96606.00;4946778;28;20062;-54
2022/04/24 05:27:37;;;;;;;10.48;7.18;;;;;;;14.74;77.78;96642.78;4968019;28;20070;-63
2022/04/24 05:30:05;;;;;;;17.35;8.35;;;;;;;14.99;75.68;96635.06;4968443;28;20494;-63
2022/04/24 05:32:43;;;;;;;9.20;6.68;;;;;;;15.03;73.75;96641.41;4968572;28;20069;-63
2022/04/24 05:35:11;;;;;;;16.42;13.35;;;;;;;15.28;71.86;96642.03;4968183;28;20059;-63
2022/04/24 05:37:38;;;;;;;11.15;6.75;;;;;;;15.41;71.20;96639.56;4968543;28;20094;-55
2022/04/24 05:40:05;;;;;;;12.13;7.05;;;;;;;15.16;71.92;96583.91;4968361;28;20524;-63
2022/04/24 05:42:32;;;;;;;15.18;6.97;;;;;;;15.69;72.31;96633.72;4969284;28;20135;-63
2022/04/24 05:45:00;;;;;;;10.48;7.22;;;;;;;15.58;71.04;96597.53;4972653;28;20605;-63
2022/04/24 05:47:27;;;;;;;10.05;6.78;;;;;;;16.08;70.50;96629.31;4987493;28;20065;-56
2022/04/24 05:49:54;;;;;;;12.43;8.57;;;;;;;16.23;69.52;96630.72;4988138;28;20104;-57
2022/04/24 05:52:21;;;;;;;11.55;6.80;;;;;;;16.41;68.15;96636.91;4987436;28;20061;-56
2022/04/24 05:54:48;;;;;;;11.68;6.40;;;;;;;16.33;68.08;96595.47;4986855;28;20069;-63
2022/04/24 05:57:15;;;;;;;11.10;6.72;;;;;;;16.63;67.80;96649.44;4988430;28;20059;-63
2022/04/24 05:59:41;;;;;;;14.68;8.07;;;;;;;16.71;67.93;96644.53;4986507;28;20062;-55
2022/04/24 06:02:08;;;;;;;10.38;7.40;;;;;;;16.04;67.64;96516.81;4987729;28;20132;-63
2022/04/24 06:04:35;;;;;;;11.52;7.90;;;;;;;16.86;66.85;96631.94;4988051;28;20061;-63
2022/04/24 06:07:02;;;;;;;9.95;7.38;;;;;;;17.05;66.80;96652.88;4958095;28;20057;-62
2022/04/24 06:09:28;;;;;;;11.20;8.07;;;;;;;17.13;66.20;96637.56;4985446;28;20508;-58
2022/04/24 06:11:58;;;;;;;13.27;7.93;;;;;;;17.35;66.33;96634.00;4986610;28;20488;-63
2022/04/24 06:14:26;;;;;;;11.95;7.05;;;;;;;17.58;66.00;96641.66;4986340;28;20058;-62
2022/04/24 06:16:53;;;;;;;12.50;6.55;;;;;;;17.25;64.17;96580.97;4985781;28;20066;-58
2022/04/24 06:19:20;;;;;;;14.25;7.18;;;;;;;17.68;64.35;96649.09;4986174;28;20057;-63
2022/04/24 06:21:47;;;;;;;11.40;7.15;;;;;;;16.92;65.76;96551.13;4986387;28;20054;-63
2022/04/24 06:24:15;;;;;;;11.63;7.30;;;;;;;17.34;67.67;96635.19;4986012;28;20133;-63
2022/04/24 06:26:44;;;;;;;12.68;6.75;;;;;;;17.62;66.44;96636.78;4984278;28;20054;-63
2022/04/24 06:29:11;;;;;;;13.85;7.00;;;;;;;17.78;66.22;96640.50;4984548;28;20066;-58
2022/04/24 06:31:39;;;;;;;10.10;6.10;;;;;;;17.72;64.18;96630.22;4985975;28;20493;-58
2022/04/24 06:34:06;;;;;;;14.57;6.03;;;;;;;18.03;63.28;96631.66;4985217;28;20058;-57
2022/04/24 06:36:32;;;;;;;7.85;6.57;;;;;;;18.08;63.42;96628.34;4985819;28;20062;-57
2022/04/24 06:39:02;;;;;;;8.73;5.85;;;;;;;18.22;64.06;96630.88;4985605;28;20065;-55
2022/04/24 06:41:29;;;;;;;7.47;5.90;;;;;;;18.28;62.63;96612.34;4985977;28;20548;-56
2022/04/24 06:43:56;;;;;;;10.32;6.53;;;;;;;18.57;61.42;96607.75;4985599;28;20081;-55
2022/04/24 06:46:25;;;;;;;12.48;5.60;;;;;;;18.73;58.97;96633.03;4968850;28;20061;-64
2022/04/24 06:48:52;;;;;;;9.57;4.93;;;;;;;18.78;58.84;96624.13;4964381;28;20047;-64
2022/04/24 06:51:19;;;;;;;9.35;5.10;;;;;;;18.78;59.45;96623.34;4966544;28;20062;-56
2022/04/24 06:53:46;;;;;;;7.28;5.28;;;;;;;18.87;60.11;96631.97;4966107;28;20062;-55
2022/04/24 06:56:12;;;;;;;6.90;5.93;;;;;;;18.69;59.60;96553.78;4965878;28;20454;-55
2022/04/24 06:58:39;;;;;;;9.23;5.32;;;;;;;18.94;59.27;96618.56;4965690;28;20062;-63
2022/04/24 07:01:12;;;;;;;6.78;4.65;;;;;;;19.18;59.92;96611.59;4966123;28;20059;-63
2022/04/24 07:03:39;;;;;;;7.25;5.90;;;;;;;19.07;60.03;96565.31;4964147;28;20445;-56
2022/04/24 07:06:07;;;;;;;7.55;4.88;;;;;;;19.51;58.99;96624.44;4965926;28;20141;-64
2022/04/24 07:08:46;;;;;;;8.38;5.10;;;;;;;19.68;59.24;96621.63;5117230;27;20144;-63
2022/04/24 07:11:13;;;;;;;6.13;4.63;;;;;;;19.39;59.28;96619.50;5101285;28;20048;-58
2022/04/24 07:13:40;;;;;;;6.13;4.65;;;;;;;19.47;59.31;96608.91;5101571;28;20203;-63
2022/04/24 07:16:07;;;;;;;5.57;4.60;;;;;;;19.47;57.83;96626.53;5099451;28;20540;-62
2022/04/24 07:18:34;;;;;;;4.85;4.15;;;;;;;19.60;56.53;96600.56;5101340;28;20043;-63
2022/04/24 07:21:02;;;;;;;4.93;4.50;;;;;;;19.78;56.18;96609.31;5100765;28;20062;-64
2022/04/24 07:23:29;;;;;;;4.93;4.38;;;;;;;19.84;54.99;96621.63;5101314;28;20052;-63
2022/04/24 07:25:56;;;;;;;9.30;4.97;;;;;;;20.17;53.28;96623.19;5101140;28;20051;-56
2022/04/24 07:28:23;;;;;;;5.43;4.03;;;;;;;20.40;53.39;96620.13;5101167;28;20067;-56
2022/04/24 07:30:49;;;;;;;5.63;4.25;;;;;;;20.27;52.58;96627.72;5100871;28;20075;-63
2022/04/24 07:33:16;;;;;;;6.50;3.55;;;;;;;19.75;53.51;96619.44;5101425;28;20138;-62
2022/04/24 07:35:43;;;;;;;6.53;3.65;;;;;;;19.71;52.34;96567.34;5100985;28;20059;-63
2022/04/24 07:38:10;;;;;;;8.23;4.65;;;;;;;20.15;52.13;96580.63;5100938;28;20396;-56
2022/04/24 07:40:37;;;;;;;6.97;3.92;;;;;;;20.28;51.40;96573.81;5100502;28;20051;-63
2022/04/24 07:43:07;;;;;;;4.57;4.05;;;;;;;20.57;51.60;96613.97;5100785;28;20485;-63
2022/04/24 07:45:35;;;;;;;7.55;4.60;;;;;;;20.93;50.98;96610.88;5098537;28;20432;-56
2022/04/24 07:48:04;;;;;;;8.70;4.00;;;;;;;20.49;50.98;96594.91;5100494;28;20428;-56
2022/04/24 07:50:38;;;;;;;7.85;4.10;;;;;;;20.32;51.21;96613.09;5100730;28;20433;-56
2022/04/24 07:53:06;;;;;;;9.68;4.40;;;;;;;20.60;52.21;96606.66;5100471;28;20051;-57
2022/04/24 07:55:33;;;;;;;7.00;4.05;;;;;;;20.61;51.39;96605.44;5100462;28;20051;-63
2022/04/24 07:58:02;;;;;;;3.95;3.65;;;;;;;20.77;51.14;96605.38;5100381;28;20056;-55
2022/04/24 08:00:31;;;;;;;5.45;3.88;;;;;;;20.74;50.47;96612.66;5100295;28;20055;-56
2022/04/24 08:03:12;;;;;;;6.60;4.13;;;;;;;20.90;50.03;96597.72;5100256;28;20058;-57
2022/04/24 08:05:42;;;;;;;4.60;3.85;;;;;;;21.04;49.47;96591.66;5099799;28;20055;-58
2022/04/24 08:08:08;;;;;;;7.50;4.35;;;;;;;21.23;49.88;96587.84;5098631;28;20070;-62
2022/04/24 08:10:39;;;;;;;4.85;4.05;;;;;;;21.33;50.39;96586.72;5100586;28;20056;-56
2022/04/24 08:13:06;;;;;;;7.65;4.47;;;;;;;21.21;49.88;96567.81;5100295;28;20050;-62
2022/04/24 08:15:41;;;;;;;5.18;4.68;;;;;;;21.47;49.95;96574.19;5099925;28;20058;-63
2022/04/24 08:18:09;;;;;;;8.45;4.32;;;;;;;21.66;50.71;96565.47;5098435;28;20043;-64
2022/04/24 08:20:36;;;;;;;5.97;4.88;;;;;;;21.24;49.87;96482.38;5086565;28;20048;-64
2022/04/24 08:23:04;;;;;;;6.18;4.30;;;;;;;21.60;49.42;96566.50;5086566;28;20044;-65
2022/04/24 08:25:34;;;;;;;9.75;4.43;;;;;;;21.72;50.62;96563.66;5087185;28;20907;-65
2022/04/24 08:28:06;;;;;;;6.07;4.50;;;;;;;21.95;49.49;96554.03;5086184;28;20056;-56
2022/04/24 08:30:36;;;;;;;4.47;3.67;;;;;;;21.40;50.00;96560.34;5084794;28;20139;-56
2022/04/24 08:33:02;;;;;;;5.97;5.43;;;;;;;21.45;50.88;96554.13;5086758;28;20142;-56
2022/04/24 08:35:30;;;;;;;4.90;4.40;;;;;;;21.70;50.23;96552.06;5086619;28;20052;-64
2022/04/24 08:37:56;;;;;;;5.40;4.50;;;;;;;21.36;50.80;96517.38;5085071;28;20052;-63
2022/04/24 08:40:24;;;;;;;5.07;3.97;;;;;;;21.55;49.90;96553.78;5086121;28;20048;-56
2022/04/24 08:42:55;;;;;;;9.80;4.90;;;;;;;21.00;50.82;96503.69;5084601;28;20491;-65
2022/04/24 08:45:30;;;;;;;5.57;4.53;;;;;;;21.41;50.87;96547.81;5085576;28;20169;-63
2022/04/24 08:47:58;;;;;;;10.93;4.40;;;;;;;21.32;51.27;96545.69;5086191;28;20434;-58
2022/04/24 08:50:29;;;;;;;9.45;4.90;;;;;;;21.63;51.32;96538.19;5086230;28;20056;-55
2022/04/24 08:52:59;;;;;;;4.38;4.00;;;;;;;21.31;50.32;96515.94;5086178;28;20063;-56
2022/04/24 08:55:29;;;;;;;7.65;5.10;;;;;;;21.89;50.59;96536.88;5085702;28;20048;-63
2022/04/24 08:57:56;;;;;;;5.25;4.30;;;;;;;21.97;49.18;96535.38;5084420;28;20055;-56
2022/04/24 09:00:24;;;;;;;9.75;4.50;;;;;;;21.90;49.83;96535.66;5085806;28;20060;-57
2022/04/24 09:02:51;;;;;;;8.38;4.57;;;;;;;22.02;49.36;96532.00;5084480;28;20056;-58
2022/04/24 09:05:20;;;;;;;13.70;5.25;;;;;;;22.28;49.74;96490.34;5085661;28;20110;-58
2022/04/24 09:07:46;;;;;;;8.52;5.35;;;;;;;22.87;48.13;96520.34;5085408;28;20079;-59
2022/04/24 09:10:48;;;;;;;7.78;5.15;;;;;;;23.18;46.52;96521.09;5085467;28;20097;-63
2022/04/24 09:16:33;;;;;;;7.60;5.10;;;;;;;23.66;46.65;96520.31;5085062;28;20409;-64
2022/04/24 09:18:59;;;;;;;8.13;4.78;;;;;;;23.61;45.78;96510.41;5084921;28;20518;-64
2022/04/24 09:21:26;;;;;;;10.90;5.15;;;;;;;23.63;45.98;96473.19;5085389;28;20593;-64
2022/04/24 09:23:58;;;;;;;11.82;6.30;;;;;;;23.52;47.03;96472.84;5085650;28;20055;-64
2022/04/24 09:26:24;;;;;;;7.50;5.05;;;;;;;24.07;45.24;96491.44;5085396;28;20074;-63
2022/04/24 09:29:12;;;;;;;9.82;4.85;;;;;;;23.73;44.71;96503.03;5083792;28;20055;-56
2022/04/24 09:31:44;;;;;;;7.88;5.10;;;;;;;23.28;46.09;96497.28;5083459;28;20050;-64
2022/04/24 09:34:11;;;;;;;7.25;5.80;;;;;;;22.86;46.61;96499.78;5084621;28;20071;-63
2022/04/24 09:36:37;;;;;;;8.43;4.68;;;;;;;22.55;47.14;96472.78;5083354;28;20495;-63
2022/04/24 09:39:04;;;;;;;12.30;6.78;;;;;;;20.22;47.18;96108.72;5083800;28;20055;-63
2022/04/24 09:41:31;;;;;;;7.10;4.68;;;;;;;23.03;45.01;96492.63;5084700;28;20048;-64
2022/04/24 09:43:57;;;;;;;12.02;5.05;;;;;;;23.06;44.82;96445.72;5084588;28;20058;-56
2022/04/24 09:46:28;;;;;;;11.82;4.90;;;;;;;23.37;44.17;96486.81;5082772;28;20071;-57
2022/04/24 09:48:59;;;;;;;10.50;4.55;;;;;;;23.35;43.36;96446.09;5084720;28;20550;-55
2022/04/24 09:51:26;;;;;;;8.88;5.38;;;;;;;23.63;43.47;96478.84;5085102;28;20079;-56
2022/04/24 09:53:59;;;;;;;8.13;6.38;;;;;;;22.67;43.12;96385.16;5083971;28;20052;-55
2022/04/24 09:56:27;;;;;;;7.10;4.82;;;;;;;22.72;43.85;96420.47;5084358;28;20058;-63
2022/04/24 09:58:58;;;;;;;11.30;5.20;;;;;;;23.88;43.60;96479.28;5084490;28;20071;-64
2022/04/24 10:01:27;;;;;;;5.70;4.60;;;;;;;24.57;41.67;96472.94;5084468;28;20074;-64
2022/04/24 10:03:55;;;;;;;5.15;4.65;;;;;;;23.20;40.96;96193.59;5082707;28;20172;-64
2022/04/24 10:06:23;;;;;;;10.45;5.05;;;;;;;24.89;39.70;96433.38;5084534;28;20052;-57
2022/04/24 10:08:51;;;;;;;10.20;5.22;;;;;;;24.84;40.64;96464.41;5083906;28;20442;-64
2022/04/24 10:11:18;;;;;;;10.93;6.68;;;;;;;24.85;41.08;96471.66;5084122;28;20052;-64
2022/04/24 10:13:47;;;;;;;10.07;5.57;;;;;;;24.90;40.42;96462.47;5084125;28;20451;-55
2022/04/24 10:16:28;;;;;;;12.88;6.00;;;;;;;24.28;41.76;96467.06;5083871;28;20055;-63
2022/04/24 10:19:24;;;;;;;11.38;5.07;;;;;;;23.98;42.75;96468.78;5084482;28;20071;-56
2022/04/24 10:22:25;;;;;;;7.57;4.70;;;;;;;24.71;42.11;96467.44;5081612;28;20063;-60
2022/04/24 10:24:59;;;;;;;6.32;5.28;;;;;;;25.09;41.35;96461.91;5082451;28;20533;-59
2022/04/24 10:27:40;;;;;;;6.53;5.20;;;;;;;25.73;39.77;96461.56;5084078;28;20060;-63
2022/04/24 10:30:12;;;;;;;7.07;5.63;;;;;;;26.08;38.90;96454.03;5083798;28;20090;-56
2022/04/24 10:32:38;;;;;;;9.23;5.90;;;;;;;26.47;38.94;96447.03;5084270;28;20055;-55
2022/04/24 10:35:31;;;;;;;8.13;6.10;;;;;;;26.85;38.11;96449.78;5083625;28;20056;-56
2022/04/24 10:38:08;;;;;;;8.43;5.03;;;;;;;26.79;36.62;96389.22;5082537;28;20055;-56
2022/04/24 10:40:35;;;;;;;9.77;5.60;;;;;;;27.17;36.97;96443.06;5083672;28;20055;-56
2022/04/24 10:43:07;;;;;;;6.78;6.10;;;;;;;27.43;36.96;96443.16;5083290;28;20056;-56
2022/04/24 10:45:45;;;;;;;12.23;6.15;;;;;;;27.53;36.13;96471.00;5084054;28;20039;-56
2022/04/24 10:48:17;;;;;;;6.93;5.45;;;;;;;27.79;35.37;96446.25;5082316;28;20052;-64
2022/04/24 10:50:55;;;;;;;9.07;6.13;;;;;;;28.04;35.89;96442.69;5081966;28;20557;-64
2022/04/24 10:53:22;;;;;;;7.95;5.93;;;;;;;27.56;35.28;96390.34;5083609;28;20060;-64
2022/04/24 10:55:48;;;;;;;11.05;5.88;;;;;;;27.38;34.63;96367.84;5083292;28;20063;-65
2022/04/24 10:58:28;;;;;;;6.65;5.70;;;;;;;27.14;36.42;96438.31;5083389;28;20087;-64
2022/04/24 11:00:54;;;;;;;6.72;6.03;;;;;;;27.24;35.83;96436.94;5083474;28;20574;-64
2022/04/24 11:03:21;;;;;;;14.65;5.72;;;;;;;26.60;36.65;96410.56;5081854;28;20052;-63
2022/04/24 11:05:52;;;;;;;7.95;5.93;;;;;;;26.98;36.09;96436.03;5083523;28;20048;-65
2022/04/24 11:08:21;;;;;;;9.23;7.10;;;;;;;26.59;36.55;96391.94;5082895;28;20060;-55
2022/04/24 11:10:49;;;;;;;14.07;6.32;;;;;;;27.10;35.44;96432.06;5082238;28;20067;-56
2022/04/24 11:13:18;;;;;;;11.55;7.35;;;;;;;27.34;35.50;96424.19;5081776;28;20048;-60
2022/04/24 11:15:50;;;;;;;7.50;6.40;;;;;;;27.20;35.32;96399.41;5081826;28;20051;-56
2022/04/24 11:18:25;;;;;;;9.68;6.25;;;;;;;27.25;35.05;96421.44;5083875;28;20411;-63
2022/04/24 11:20:54;;;;;;;6.63;5.93;;;;;;;27.09;33.93;96419.16;5082176;28;20432;-55
2022/04/24 11:23:24;;;;;;;10.00;5.93;;;;;;;26.95;34.51;96408.59;5082098;28;20608;-56
2022/04/24 11:25:56;;;;;;;10.88;6.32;;;;;;;27.47;34.84;96416.09;5081845;28;20086;-63
2022/04/24 11:28:37;;;;;;;9.13;6.55;;;;;;;27.36;34.43;96373.25;5082990;28;20056;-65
2022/04/24 11:31:08;;;;;;;13.52;6.07;;;;;;;27.90;34.87;96420.78;5083404;28;20051;-56
2022/04/24 11:33:36;;;;;;;8.50;6.55;;;;;;;28.17;33.73;96394.69;5083468;28;20109;-57
2022/04/24 11:36:04;;;;;;;10.02;5.53;;;;;;;28.26;34.31;96361.63;5083258;28;20441;-56
2022/04/24 11:38:32;;;;;;;10.60;5.95;;;;;;;26.47;36.60;96393.84;5081975;28;20048;-66